Terminal Aerodrome Forecast
Issued by NWS Cleveland, OH

Home | Current Version | Previous Version | Text Only | Print | Product List | Glossary Off
Versions: 1 2 3 4 5 6 7 8 9 10 11 12 13 14 15 16

000
FTUS41 KCLE 291700
TAFERI
TAF
KERI 291724Z 2918/3018 12008KT P6SM SCT250
     FM291900 05005KT P6SM SCT250
     FM300400 15012KT P6SM BKN250
     FM301400 19012KT P6SM SCT120 BKN250=

USA.gov is the U.S. government's official web portal to all federal, state and local government web resources and services.